Nordland, WA (98358)

6:42 AM PDT on July 23, 2016 (GMT -0700)
APRSWXNET | | Change Station

Elev 39 ft 48.06 °N, 122.69 °W | Updated 30 minutes ago

Overcast
Overcast
56 °F
Feels Like 56 °F
N
0
Wind Variable Wind from SSW
Gusts 0.0 mph

Today
High -- | Low -- °F
--% Chance of Precip.
Yesterday
High -- | Low -- °F
Precip. -- in
Pressure 30.27 in
Visibility 10.0 miles
Clouds Scattered Clouds 900 ft
Overcast 2300 ft
Dew Point 53 °F
Humidity 89%
Rainfall in
Snow Depth Not available.
5:36 AM 8:57 PM
Waning Gibbous, 85% visible
SPECI KPAE 231320Z AUTO 00000KT 10SM SCT009 OVC023 14/12 A3027 RMK AO2 T01390122
Pressure 30.27 in
Visibility 10.0 miles
Clouds Scattered Clouds 900 ft
Overcast 2300 ft
Dew Point 53 °F
Humidity 89%
Rainfall in
Snow Depth Not available.
5:36 AM 8:57 PM
Waning Gibbous, 85% visible
SPECI KPAE 231320Z AUTO 00000KT 10SM SCT009 OVC023 14/12 A3027 RMK AO2 T01390122

10-Day Weather Forecast

Almanac

Astronomy

Jul. 23, 2016 Rise Set
Actual Time
Civil Twilight
Nautical Twilight
Astronomical Twilight
Moon
Length of Visible Light
Length of Day
Tomorrow will be .
, % of the Moon is Illuminated

Today's Extremes

State Highs State Lows

Community

WunderPhotos

Upload Photos

1,926,818 photos uploaded!

WunderBlog® & News

Nearby

Air Quality

  Air Quality AQ Index Pollutant
Not available.

Snow Depth

Station Depth Elevation

Earthquake Activity

City Distance Mag. Time & Date
Minimum magnitude displayed is 2.5.

Coastal Water Temperatures

Place Temperature

Stations

Nearby Weather Stations

Station Location Temp. Windchill Dew Point Humidity Wind Precip. Elev Updated Type
                   

Watches & Warnings

There are currently no watches in effect.